Time;durP1;ratioP1;P1;durP2;ratioP2;P2;SDS_P1;SDS_P2;PMS_P1;PMS_P2;Temp;Humidity;BMP_temperature;BMP_pressure;BME280_temperature;BME280_humidity;BME280_pressure;Samples;Min_cycle;Max_cycle;Signal;HPM_P1;HPM_P2
2021/04/03 00:01:06;;;;;;;15.87;8.47;;;4.30;90.30;;;;;;5057951;28;20193;-60
2021/04/03 00:03:31;;;;;;;21.03;9.77;;;4.20;90.80;;;;;;5058096;28;20197;-60
2021/04/03 00:05:57;;;;;;;20.80;10.10;;;4.30;91.50;;;;;;5059824;28;20467;-59
2021/04/03 00:08:24;;;;;;;23.03;11.13;;;4.30;92.00;;;;;;5055427;28;20223;-59
2021/04/03 00:10:49;;;;;;;20.57;10.83;;;4.40;92.20;;;;;;5062014;28;20506;-60
2021/04/03 00:13:21;;;;;;;20.90;11.20;;;4.50;92.70;;;;;;5060521;28;20521;-59
2021/04/03 00:15:47;;;;;;;22.80;11.70;;;4.70;92.40;;;;;;5062073;28;20248;-61
2021/04/03 00:18:16;;;;;;;23.00;12.17;;;4.70;92.10;;;;;;5057341;28;20447;-58
2021/04/03 00:20:43;;;;;;;18.93;11.27;;;4.80;92.20;;;;;;5058106;28;20434;-60
2021/04/03 00:23:09;;;;;;;26.70;12.63;;;4.90;92.00;;;;;;5058845;28;20456;-59
2021/04/03 00:25:35;;;;;;;21.40;11.80;;;4.90;91.90;;;;;;5056535;28;20451;-59
2021/04/03 00:28:01;;;;;;;22.83;11.63;;;4.90;91.90;;;;;;5058532;28;20430;-59
2021/04/03 00:30:27;;;;;;;26.03;13.10;;;4.90;91.90;;;;;;5056285;28;20227;-59
2021/04/03 00:32:58;;;;;;;27.20;12.73;;;4.90;91.90;;;;;;5059427;28;20437;-59
2021/04/03 00:35:30;;;;;;;18.53;10.60;;;5.00;92.00;;;;;;5057193;28;20416;-59
2021/04/03 00:37:57;;;;;;;23.87;12.27;;;5.00;91.80;;;;;;5055084;28;22393;-60
2021/04/03 00:40:24;;;;;;;23.03;12.17;;;5.00;91.60;;;;;;5059128;28;21015;-59
2021/04/03 00:42:50;;;;;;;24.83;13.27;;;5.00;91.60;;;;;;5063584;28;20473;-60
2021/04/03 00:45:17;;;;;;;21.87;12.33;;;5.00;91.30;;;;;;5058162;28;20432;-60
2021/04/03 00:47:43;;;;;;;22.80;11.13;;;5.00;91.30;;;;;;5059664;28;20175;-59
2021/04/03 00:50:10;;;;;;;29.00;13.83;;;5.00;91.30;;;;;;5058834;28;20422;-58
2021/04/03 00:52:37;;;;;;;24.40;13.00;;;5.00;91.40;;;;;;5056767;28;20432;-59
2021/04/03 00:55:07;;;;;;;27.00;12.47;;;5.00;91.50;;;;;;5061728;28;20432;-58
2021/04/03 00:57:34;;;;;;;22.87;12.83;;;5.00;91.50;;;;;;5054198;28;20491;-59
2021/04/03 01:00:01;;;;;;;25.63;14.07;;;5.00;91.50;;;;;;5087959;28;21009;-59
2021/04/03 01:02:27;;;;;;;23.43;12.30;;;5.00;91.50;;;;;;5060741;28;20510;-60
2021/04/03 01:04:52;;;;;;;26.63;13.40;;;5.10;91.30;;;;;;5059205;28;20468;-59
2021/04/03 01:07:18;;;;;;;22.30;12.43;;;5.10;91.40;;;;;;5058680;28;20355;-60
2021/04/03 01:09:45;;;;;;;26.57;12.90;;;5.00;91.50;;;;;;5064638;28;20178;-60
2021/04/03 01:12:35;;;;;;;23.40;12.70;;;5.00;91.50;;;;;;5060118;28;20179;-60
2021/04/03 01:15:40;;;;;;;22.17;12.33;;;5.00;91.50;;;;;;5061619;28;20429;-60
2021/04/03 01:18:09;;;;;;;25.57;12.37;;;5.00;90.90;;;;;;5054281;28;20428;-60
2021/04/03 01:20:54;;;;;;;22.80;12.60;;;5.00;91.30;;;;;;5062923;28;20424;-57
2021/04/03 01:23:43;;;;;;;23.77;12.07;;;5.00;91.10;;;;;;5060033;28;20960;-58
2021/04/03 01:26:41;;;;;;;33.10;13.63;;;4.90;90.90;;;;;;5063633;28;20516;-60
2021/04/03 01:29:23;;;;;;;26.70;13.30;;;4.90;91.00;;;;;;5063813;28;20417;-59
2021/04/03 01:31:50;;;;;;;26.07;12.53;;;4.90;90.90;;;;;;5062238;28;20982;-59
2021/04/03 01:34:22;;;;;;;34.57;14.00;;;4.90;90.90;;;;;;5059926;28;20510;-59
2021/04/03 01:36:49;;;;;;;26.93;13.37;;;4.80;90.90;;;;;;5062682;28;20459;-60
2021/04/03 01:39:22;;;;;;;22.83;12.93;;;4.90;90.90;;;;;;5061097;28;21382;-59
2021/04/03 01:41:50;;;;;;;25.90;12.20;;;4.80;90.80;;;;;;5061978;28;20428;-59
2021/04/03 01:44:20;;;;;;;25.37;13.83;;;4.80;91.10;;;;;;5061426;28;20527;-60
2021/04/03 01:46:49;;;;;;;25.97;13.50;;;4.70;91.00;;;;;;5060704;28;20449;-59
2021/04/03 01:49:16;;;;;;;23.63;11.97;;;4.70;91.30;;;;;;5087218;28;20455;-61
2021/04/03 01:51:47;;;;;;;28.77;12.13;;;4.70;91.40;;;;;;5065383;28;20993;-59
2021/04/03 01:54:14;;;;;;;23.90;12.23;;;4.70;91.50;;;;;;5059359;28;20471;-59
2021/04/03 01:56:46;;;;;;;23.83;11.87;;;4.70;91.50;;;;;;5057373;28;20828;-58
2021/04/03 01:59:13;;;;;;;26.43;12.70;;;4.80;91.60;;;;;;5060134;28;20422;-59
2021/04/03 02:01:41;;;;;;;23.53;12.50;;;4.70;91.50;;;;;;5061214;28;20507;-59
2021/04/03 02:04:08;;;;;;;21.30;11.17;;;4.70;91.40;;;;;;5062873;28;20444;-59
2021/04/03 02:06:36;;;;;;;23.87;12.70;;;4.70;91.20;;;;;;5060959;28;20449;-60
2021/04/03 02:09:05;;;;;;;27.10;13.07;;;4.60;91.00;;;;;;5089715;22;20579;-58
2021/04/03 02:11:36;;;;;;;29.00;13.23;;;4.60;91.30;;;;;;5063915;28;20504;-55
2021/04/03 02:14:05;;;;;;;22.43;12.30;;;4.50;91.30;;;;;;5068913;28;20527;-57
2021/04/03 02:16:32;;;;;;;24.03;13.40;;;4.50;91.40;;;;;;5066842;28;20460;-57
2021/04/03 02:19:00;;;;;;;21.90;11.63;;;4.50;91.40;;;;;;5074900;28;20447;-57
2021/04/03 02:21:26;;;;;;;20.37;11.20;;;4.50;91.30;;;;;;5073335;28;21006;-57
2021/04/03 02:23:53;;;;;;;24.17;12.40;;;4.50;91.30;;;;;;5073267;28;20930;-56
2021/04/03 02:26:18;;;;;;;30.63;12.23;;;4.50;91.20;;;;;;5069311;28;20920;-57
2021/04/03 02:28:44;;;;;;;27.63;11.70;;;4.50;91.30;;;;;;5063284;28;20543;-56
2021/04/03 02:31:10;;;;;;;26.87;13.47;;;4.50;91.30;;;;;;5064755;28;20181;-56
2021/04/03 02:33:36;;;;;;;27.50;12.40;;;4.50;91.40;;;;;;5063678;28;20435;-56
2021/04/03 02:36:02;;;;;;;26.07;11.67;;;4.40;91.50;;;;;;5065787;28;20225;-58
2021/04/03 02:38:27;;;;;;;25.43;14.07;;;4.40;91.70;;;;;;5068034;28;20189;-57
2021/04/03 02:40:53;;;;;;;30.50;13.00;;;4.40;91.60;;;;;;5072125;28;20177;-58
2021/04/03 02:43:43;;;;;;;21.53;11.97;;;4.40;92.10;;;;;;5072060;28;20171;-58
2021/04/03 02:46:18;;;;;;;22.63;11.37;;;4.40;91.70;;;;;;5071512;28;20178;-58
2021/04/03 02:48:50;;;;;;;20.60;11.40;;;4.40;91.80;;;;;;5071474;28;20527;-55
2021/04/03 02:51:22;;;;;;;27.47;10.73;;;4.40;91.50;;;;;;5066439;28;20447;-57
2021/04/03 02:53:49;;;;;;;19.77;10.57;;;4.40;91.60;;;;;;5081523;28;20425;-56
2021/04/03 02:56:15;;;;;;;20.77;11.53;;;4.40;91.20;;;;;;5065127;28;20606;-58
2021/04/03 02:58:42;;;;;;;26.70;11.53;;;4.40;91.30;;;;;;5064569;28;22208;-58
2021/04/03 03:01:11;;;;;;;21.50;11.73;;;4.30;91.20;;;;;;5062329;28;20428;-58
2021/04/03 03:03:39;;;;;;;25.60;10.40;;;4.30;91.20;;;;;;5065316;28;20419;-59
2021/04/03 03:06:05;;;;;;;24.30;12.50;;;4.30;91.20;;;;;;5063869;28;20428;-58
2021/04/03 03:08:34;;;;;;;21.60;10.93;;;4.20;91.40;;;;;;5063632;28;20478;-57
2021/04/03 03:11:01;;;;;;;26.80;11.63;;;4.20;91.50;;;;;;5064689;28;20454;-58
2021/04/03 03:13:30;;;;;;;23.43;12.13;;;4.20;91.60;;;;;;5063275;28;20925;-59
2021/04/03 03:15:59;;;;;;;24.27;12.50;;;4.20;91.60;;;;;;5064622;28;20424;-58
2021/04/03 03:18:24;;;;;;;27.03;11.33;;;4.30;91.60;;;;;;5064364;28;20444;-56
2021/04/03 03:20:50;;;;;;;23.27;11.40;;;4.20;91.70;;;;;;5065105;28;20433;-56
2021/04/03 03:23:16;;;;;;;19.73;10.60;;;4.20;91.70;;;;;;5064638;28;20181;-58
2021/04/03 03:25:42;;;;;;;18.10;10.70;;;4.20;91.70;;;;;;5065752;28;20419;-59
2021/04/03 03:28:09;;;;;;;19.30;10.90;;;4.20;91.80;;;;;;5062519;28;20429;-57
2021/04/03 03:30:35;;;;;;;20.83;11.37;;;4.20;91.80;;;;;;5062601;28;20192;-58
2021/04/03 03:33:02;;;;;;;22.43;10.93;;;4.20;91.90;;;;;;5063398;28;20429;-59
2021/04/03 03:35:28;;;;;;;26.37;12.03;;;4.20;92.10;;;;;;5066042;28;20464;-58
2021/04/03 03:37:55;;;;;;;21.13;11.70;;;4.20;92.20;;;;;;5061687;28;20565;-56
2021/04/03 03:40:21;;;;;;;24.87;12.03;;;4.20;92.20;;;;;;5063988;28;20175;-57
2021/04/03 03:42:47;;;;;;;21.13;11.40;;;4.20;92.20;;;;;;5062529;28;20429;-58
2021/04/03 03:45:14;;;;;;;18.53;11.20;;;4.20;92.30;;;;;;5063057;28;20520;-57
2021/04/03 03:47:40;;;;;;;19.97;11.43;;;4.30;92.30;;;;;;5061839;28;20464;-58
2021/04/03 03:50:07;;;;;;;26.17;12.50;;;4.30;92.30;;;;;;5065387;28;20535;-57
2021/04/03 03:52:33;;;;;;;21.13;10.73;;;4.20;92.40;;;;;;5067508;28;20952;-57
2021/04/03 03:54:59;;;;;;;27.37;10.87;;;4.30;92.60;;;;;;5068256;28;20433;-59
2021/04/03 03:57:24;;;;;;;20.60;10.80;;;4.30;92.40;;;;;;5070328;28;20202;-58
2021/04/03 03:59:50;;;;;;;22.37;10.87;;;4.30;92.20;;;;;;5070391;28;20213;-58
2021/04/03 04:02:16;;;;;;;20.83;11.10;;;4.30;92.00;;;;;;5063943;28;20257;-57
2021/04/03 04:04:41;;;;;;;20.17;10.67;;;4.30;92.00;;;;;;5065076;28;20185;-58
2021/04/03 04:07:07;;;;;;;17.50;10.63;;;4.30;91.70;;;;;;5065636;28;20189;-57
2021/04/03 04:09:33;;;;;;;24.50;9.90;;;4.40;91.50;;;;;;5063659;28;20220;-57
2021/04/03 04:12:06;;;;;;;18.93;8.97;;;4.30;91.10;;;;;;5059471;28;20903;-58
2021/04/03 04:14:33;;;;;;;18.53;10.60;;;4.30;91.00;;;;;;5064296;28;20297;-57
2021/04/03 04:16:59;;;;;;;23.73;9.67;;;4.30;91.00;;;;;;5063447;28;20480;-58
2021/04/03 04:19:25;;;;;;;13.83;9.70;;;4.20;91.10;;;;;;5065295;28;20486;-58
2021/04/03 04:21:51;;;;;;;26.67;9.57;;;4.30;91.20;;;;;;5066886;28;20419;-59
2021/04/03 04:24:17;;;;;;;18.33;9.37;;;4.20;91.10;;;;;;5064785;28;20174;-58
2021/04/03 04:26:42;;;;;;;19.80;10.73;;;4.30;91.10;;;;;;5062997;28;20779;-58
2021/04/03 04:29:08;;;;;;;16.47;9.13;;;4.30;91.20;;;;;;5063352;28;20222;-57
2021/04/03 04:31:33;;;;;;;16.40;9.77;;;4.30;91.20;;;;;;5061544;28;20217;-58
2021/04/03 04:33:59;;;;;;;12.73;7.70;;;4.30;90.30;;;;;;5065914;28;20259;-57
2021/04/03 04:36:25;;;;;;;16.30;9.47;;;4.30;90.10;;;;;;5065295;28;20309;-58
2021/04/03 04:38:50;;;;;;;18.40;9.27;;;4.20;89.70;;;;;;5065184;28;20199;-56
2021/04/03 04:41:16;;;;;;;19.57;9.20;;;4.20;89.60;;;;;;5065366;28;20367;-58
2021/04/03 04:43:42;;;;;;;16.30;9.37;;;4.20;89.50;;;;;;5064961;28;20217;-57
2021/04/03 04:46:07;;;;;;;19.83;9.40;;;4.10;89.50;;;;;;5067499;28;20175;-57
2021/04/03 04:48:33;;;;;;;17.00;9.70;;;4.10;89.60;;;;;;5067145;28;20812;-58
2021/04/03 04:50:58;;;;;;;20.63;9.83;;;4.10;89.70;;;;;;5052717;28;20309;-57
2021/04/03 04:53:24;;;;;;;22.37;9.37;;;4.00;89.60;;;;;;5069965;28;20248;-57
2021/04/03 04:55:50;;;;;;;13.90;8.73;;;4.00;89.50;;;;;;5069430;28;20354;-56
2021/04/03 04:58:16;;;;;;;15.50;8.47;;;3.90;89.70;;;;;;5069144;28;20228;-56
2021/04/03 05:00:41;;;;;;;19.20;9.03;;;3.90;90.00;;;;;;5066912;28;20178;-58
2021/04/03 05:03:07;;;;;;;19.70;8.30;;;3.90;89.80;;;;;;5066900;28;20454;-56
2021/04/03 05:05:33;;;;;;;15.20;8.03;;;3.80;89.80;;;;;;5069814;28;20323;-57
2021/04/03 05:07:58;;;;;;;14.27;8.20;;;3.80;89.50;;;;;;5067046;28;20181;-56
2021/04/03 05:10:24;;;;;;;16.13;8.20;;;3.80;89.10;;;;;;5070300;28;20177;-56
2021/04/03 05:12:50;;;;;;;20.37;8.57;;;3.80;89.40;;;;;;5069364;28;20184;-57
2021/04/03 05:15:15;;;;;;;16.10;7.97;;;3.80;89.90;;;;;;5081709;28;20170;-58
2021/04/03 05:17:41;;;;;;;12.60;7.70;;;3.80;89.50;;;;;;5083435;28;20232;-57
2021/04/03 05:20:07;;;;;;;22.30;9.73;;;3.80;88.70;;;;;;5086619;28;20198;-58
2021/04/03 05:22:33;;;;;;;17.67;8.50;;;3.80;88.70;;;;;;5085053;28;20231;-55
2021/04/03 05:24:59;;;;;;;13.07;8.03;;;3.80;88.90;;;;;;5086379;28;20545;-58
2021/04/03 05:27:24;;;;;;;17.60;8.30;;;3.80;88.70;;;;;;5081503;28;20181;-57
2021/04/03 05:29:50;;;;;;;16.00;8.47;;;3.90;88.10;;;;;;5086124;28;20276;-56
2021/04/03 05:32:15;;;;;;;20.80;8.70;;;3.90;87.60;;;;;;5083989;28;20273;-59
2021/04/03 05:34:41;;;;;;;12.03;7.30;;;3.90;86.50;;;;;;5078860;28;20211;-60
2021/04/03 05:37:07;;;;;;;13.63;7.27;;;3.90;85.80;;;;;;5073411;28;20218;-57
2021/04/03 05:39:32;;;;;;;13.77;8.10;;;3.80;85.30;;;;;;5074331;28;20197;-61
2021/04/03 05:41:58;;;;;;;12.63;7.40;;;3.80;85.50;;;;;;5065438;28;20309;-58
2021/04/03 05:44:26;;;;;;;14.53;8.27;;;3.80;85.20;;;;;;5064905;28;20198;-58
2021/04/03 05:46:52;;;;;;;13.23;8.07;;;3.80;84.60;;;;;;5063370;28;20215;-57
2021/04/03 05:49:19;;;;;;;12.30;7.63;;;3.80;83.80;;;;;;5068065;28;20518;-58
2021/04/03 05:51:46;;;;;;;12.23;7.00;;;3.80;81.90;;;;;;5067880;28;20443;-58
2021/04/03 05:54:12;;;;;;;13.80;7.70;;;3.80;81.10;;;;;;5066869;28;21088;-58
2021/04/03 05:56:38;;;;;;;12.53;8.03;;;3.80;81.50;;;;;;5074196;28;20502;-60
2021/04/03 05:59:04;;;;;;;18.40;7.50;;;3.80;81.00;;;;;;5081940;28;20864;-59
2021/04/03 06:01:32;;;;;;;12.67;7.27;;;3.80;82.10;;;;;;5083279;28;20220;-57
2021/04/03 06:03:58;;;;;;;14.13;7.20;;;3.80;82.30;;;;;;5082343;28;20450;-57
2021/04/03 06:06:26;;;;;;;16.57;7.60;;;3.90;81.90;;;;;;5082962;28;20811;-58
2021/04/03 06:08:53;;;;;;;12.73;7.33;;;3.90;80.40;;;;;;5086947;28;20206;-60
2021/04/03 06:11:20;;;;;;;17.70;7.27;;;3.90;80.60;;;;;;5087898;28;21537;-60
2021/04/03 06:13:58;;;;;;;11.50;7.07;;;3.90;80.20;;;;;;5088347;28;20504;-62
2021/04/03 06:16:32;;;;;;;17.33;7.23;;;4.00;78.80;;;;;;5088068;28;20440;-58
2021/04/03 06:19:09;;;;;;;11.00;5.80;;;4.00;77.20;;;;;;5102292;28;20476;-59
2021/04/03 06:21:35;;;;;;;10.40;6.53;;;4.10;76.20;;;;;;5095417;28;20575;-59
2021/04/03 06:24:01;;;;;;;17.50;7.10;;;4.20;75.50;;;;;;5082520;28;20440;-59
2021/04/03 06:26:27;;;;;;;8.30;5.47;;;4.20;73.10;;;;;;5086694;28;20644;-58
2021/04/03 06:28:52;;;;;;;15.00;6.80;;;4.20;72.50;;;;;;5078334;28;20484;-59
2021/04/03 06:31:19;;;;;;;10.27;5.63;;;4.30;71.80;;;;;;5072114;28;20195;-58
2021/04/03 06:33:46;;;;;;;11.03;6.10;;;4.40;71.00;;;;;;5065251;28;20186;-58
2021/04/03 06:36:12;;;;;;;11.50;5.77;;;4.40;71.30;;;;;;5065291;28;20547;-57
2021/04/03 06:38:39;;;;;;;11.20;6.60;;;4.50;68.70;;;;;;5067726;28;20460;-58
2021/04/03 06:41:34;;;;;;;17.73;6.20;;;4.50;67.60;;;;;;5062684;28;20440;-56
2021/04/03 06:44:08;;;;;;;7.50;4.90;;;4.50;67.50;;;;;;5046861;28;20514;-57
2021/04/03 06:46:36;;;;;;;9.10;5.50;;;4.50;65.00;;;;;;5062166;28;21267;-58
2021/04/03 06:49:02;;;;;;;10.17;5.80;;;4.50;66.30;;;;;;5075353;28;20457;-59
2021/04/03 06:51:29;;;;;;;12.90;5.37;;;4.50;67.00;;;;;;5062296;28;20807;-59
2021/04/03 06:53:56;;;;;;;10.47;5.00;;;4.60;66.80;;;;;;5062931;28;20528;-60
2021/04/03 06:56:26;;;;;;;10.33;5.70;;;4.60;65.60;;;;;;5058584;28;20475;-59
2021/04/03 06:59:03;;;;;;;10.00;4.90;;;4.60;64.80;;;;;;5061375;28;20479;-61
2021/04/03 07:01:50;;;;;;;11.57;5.17;;;4.50;63.70;;;;;;5058971;28;20924;-58
2021/04/03 07:04:28;;;;;;;9.93;5.13;;;4.50;63.60;;;;;;5079049;28;20437;-58
2021/04/03 07:06:55;;;;;;;7.73;4.83;;;4.50;62.90;;;;;;5059573;28;20440;-59
2021/04/03 07:09:21;;;;;;;8.40;4.90;;;4.40;61.80;;;;;;5080354;28;20471;-59
2021/04/03 07:11:53;;;;;;;11.67;4.40;;;4.40;61.40;;;;;;5052824;28;20528;-64
2021/04/03 07:14:23;;;;;;;6.80;4.50;;;4.40;62.10;;;;;;5053145;28;20435;-58
2021/04/03 07:16:50;;;;;;;10.53;4.77;;;4.40;63.20;;;;;;5057718;28;20457;-59
2021/04/03 07:19:18;;;;;;;8.47;4.37;;;4.50;62.90;;;;;;5058169;28;20450;-58
2021/04/03 07:21:45;;;;;;;9.50;5.40;;;4.50;61.70;;;;;;5062638;28;20456;-59
2021/04/03 07:24:12;;;;;;;7.13;4.50;;;4.60;60.60;;;;;;5060785;28;20510;-58
2021/04/03 07:26:42;;;;;;;8.23;5.70;;;4.70;59.90;;;;;;5058704;28;20439;-60
2021/04/03 07:29:07;;;;;;;7.13;4.43;;;4.70;60.30;;;;;;5063731;28;20468;-60
2021/04/03 07:31:41;;;;;;;8.50;4.70;;;4.90;60.90;;;;;;5054798;28;20784;-59
2021/04/03 07:34:09;;;;;;;8.30;4.60;;;5.00;60.30;;;;;;5063218;28;20188;-57
2021/04/03 07:36:37;;;;;;;10.63;4.50;;;5.10;59.20;;;;;;5053661;28;20474;-59
2021/04/03 07:39:27;;;;;;;11.73;4.50;;;5.10;59.30;;;;;;5054458;28;20448;-59
2021/04/03 07:41:52;;;;;;;9.97;4.93;;;5.20;59.70;;;;;;5054397;28;20452;-58
2021/04/03 07:44:18;;;;;;;10.33;4.80;;;5.40;59.50;;;;;;5062131;28;20941;-58
2021/04/03 07:46:46;;;;;;;6.33;4.40;;;5.60;58.10;;;;;;5056406;28;20189;-58
2021/04/03 07:49:33;;;;;;;10.87;4.97;;;5.80;56.50;;;;;;5058387;28;20758;-58
2021/04/03 07:51:59;;;;;;;6.13;3.80;;;6.00;54.90;;;;;;5062866;28;20436;-58
2021/04/03 07:54:29;;;;;;;5.50;4.23;;;6.10;54.10;;;;;;5059613;28;20441;-58
2021/04/03 07:57:00;;;;;;;6.27;3.93;;;6.20;53.10;;;;;;5063384;28;20507;-57
2021/04/03 07:59:46;;;;;;;8.07;4.23;;;6.40;53.00;;;;;;5062692;28;20812;-57
2021/04/03 08:02:14;;;;;;;6.37;3.73;;;6.60;52.60;;;;;;5057458;28;20940;-60
2021/04/03 08:04:40;;;;;;;6.53;3.83;;;6.80;50.90;;;;;;5059160;28;21087;-61
2021/04/03 08:07:05;;;;;;;8.67;4.13;;;6.80;50.30;;;;;;5059700;28;20455;-60
2021/04/03 08:09:32;;;;;;;4.70;3.83;;;6.90;49.70;;;;;;5081665;22;20568;-62
2021/04/03 08:11:58;;;;;;;4.63;3.37;;;6.90;49.60;;;;;;5055495;28;20166;-61
2021/04/03 08:14:31;;;;;;;5.43;3.37;;;6.90;49.60;;;;;;5056995;28;20779;-62
2021/04/03 08:16:57;;;;;;;7.03;4.10;;;7.00;47.90;;;;;;5058960;28;20457;-61
2021/04/03 08:19:28;;;;;;;5.97;3.77;;;7.00;47.00;;;;;;5062026;28;20493;-61
2021/04/03 08:21:54;;;;;;;5.10;2.87;;;7.00;46.80;;;;;;5058812;28;20457;-62
2021/04/03 08:24:21;;;;;;;7.60;3.37;;;7.00;46.40;;;;;;5055848;28;20530;-61
2021/04/03 08:26:48;;;;;;;5.73;3.50;;;7.00;46.30;;;;;;5052983;28;20421;-61
2021/04/03 08:29:25;;;;;;;7.17;3.93;;;7.00;46.30;;;;;;5056703;28;20462;-61
2021/04/03 08:31:52;;;;;;;8.40;3.60;;;7.00;46.20;;;;;;5062820;28;20471;-61
2021/04/03 08:34:18;;;;;;;6.83;3.70;;;7.00;46.40;;;;;;5063087;28;20474;-57
2021/04/03 08:36:44;;;;;;;4.50;4.10;;;7.00;46.10;;;;;;5057041;28;20460;-57
2021/04/03 08:39:13;;;;;;;5.10;4.40;;;6.90;46.50;;;;;;5063796;28;20511;-57
2021/04/03 08:41:41;;;;;;;6.50;3.73;;;6.90;45.90;;;;;;5066256;28;20791;-58
2021/04/03 08:44:33;;;;;;;5.50;3.40;;;6.80;46.30;;;;;;5065846;28;20415;-60
2021/04/03 08:47:01;;;;;;;4.60;3.40;;;6.80;46.60;;;;;;5055672;28;20429;-61
2021/04/03 08:49:38;;;;;;;9.20;3.73;;;6.90;47.20;;;;;;5062305;28;21000;-60
2021/04/03 08:52:05;;;;;;;3.50;3.07;;;6.90;46.30;;;;;;5059356;28;20469;-61
2021/04/03 08:54:35;;;;;;;5.20;3.13;;;6.90;46.10;;;;;;5061254;28;20986;-62
2021/04/03 08:57:01;;;;;;;6.40;3.20;;;7.00;46.00;;;;;;5050437;28;20551;-61
2021/04/03 08:59:28;;;;;;;3.83;3.33;;;7.00;46.40;;;;;;5058330;28;20523;-61
2021/04/03 09:01:58;;;;;;;6.77;3.67;;;7.10;46.30;;;;;;5056739;28;20213;-62
2021/04/03 09:04:25;;;;;;;6.70;3.43;;;7.20;46.20;;;;;;5065586;28;20436;-62
2021/04/03 09:06:57;;;;;;;9.40;3.43;;;7.30;46.20;;;;;;5071602;28;20478;-61
2021/04/03 09:09:24;;;;;;;3.90;2.97;;;7.40;46.60;;;;;;5062879;28;20543;-60
2021/04/03 09:12:05;;;;;;;5.10;3.30;;;7.60;46.10;;;;;;5061411;28;20516;-62
2021/04/03 09:14:39;;;;;;;3.57;3.10;;;7.70;46.20;;;;;;5058994;28;20486;-62
2021/04/03 09:17:26;;;;;;;11.13;2.97;;;7.80;45.70;;;;;;5055858;28;20488;-61
2021/04/03 09:20:03;;;;;;;10.00;3.50;;;7.90;44.30;;;;;;5060811;28;20440;-61
2021/04/03 09:22:39;;;;;;;9.20;3.40;;;7.90;44.00;;;;;;5057248;28;20509;-61
2021/04/03 09:25:08;;;;;;;6.57;3.90;;;7.90;44.60;;;;;;5055905;28;20478;-62
2021/04/03 09:27:34;;;;;;;4.47;3.77;;;8.10;45.20;;;;;;5062925;28;20463;-62
2021/04/03 09:30:06;;;;;;;3.43;3.00;;;8.20;45.20;;;;;;5060754;28;20461;-60
2021/04/03 09:32:46;;;;;;;5.00;3.83;;;8.10;44.10;;;;;;5062260;28;20463;-61
2021/04/03 09:35:20;;;;;;;7.50;3.80;;;8.10;45.30;;;;;;5061415;28;20421;-61
2021/04/03 09:38:03;;;;;;;4.47;3.23;;;8.30;46.10;;;;;;5075941;28;20476;-62
2021/04/03 09:40:58;;;;;;;4.20;3.00;;;8.40;44.50;;;;;;5082303;28;20535;-62
2021/04/03 09:43:40;;;;;;;9.10;3.40;;;8.50;44.20;;;;;;5075072;28;20561;-63
2021/04/03 09:46:05;;;;;;;6.03;3.77;;;8.40;43.20;;;;;;5071703;28;20433;-62
2021/04/03 09:48:31;;;;;;;3.90;3.17;;;8.30;43.00;;;;;;5073328;28;21038;-59
2021/04/03 09:50:57;;;;;;;5.03;3.40;;;8.30;42.80;;;;;;5065939;28;20281;-61
2021/04/03 09:53:28;;;;;;;3.63;3.10;;;8.30;43.10;;;;;;5062465;28;20657;-61
2021/04/03 09:55:54;;;;;;;7.83;3.63;;;8.30;43.20;;;;;;5065089;28;20421;-61
2021/04/03 09:58:19;;;;;;;6.93;3.73;;;8.40;43.50;;;;;;5068408;28;20440;-62
2021/04/03 10:00:45;;;;;;;7.80;3.87;;;8.50;43.00;;;;;;5069719;28;20205;-61
2021/04/03 10:03:11;;;;;;;6.53;4.40;;;8.70;43.20;;;;;;5065980;28;20186;-58
2021/04/03 10:05:36;;;;;;;10.73;3.60;;;8.70;42.90;;;;;;5066679;28;20187;-61
2021/04/03 10:08:02;;;;;;;8.90;3.53;;;8.80;42.90;;;;;;5063358;28;20533;-62
2021/04/03 10:10:28;;;;;;;10.07;3.70;;;9.00;43.70;;;;;;5055393;28;20679;-62
2021/04/03 10:12:53;;;;;;;4.57;3.50;;;9.30;43.70;;;;;;5071229;28;20622;-61
2021/04/03 10:15:21;;;;;;;8.70;3.40;;;9.70;43.20;;;;;;5069505;28;20175;-62
2021/04/03 10:17:47;;;;;;;3.90;3.17;;;10.10;41.50;;;;;;5070278;28;20264;-62
2021/04/03 10:20:16;;;;;;;5.03;3.10;;;10.20;39.80;;;;;;5060913;28;20494;-62
2021/04/03 10:22:42;;;;;;;4.90;3.70;;;10.30;39.60;;;;;;5071313;28;20972;-62
2021/04/03 10:25:09;;;;;;;10.80;4.00;;;10.20;38.60;;;;;;5064805;28;20460;-61
2021/04/03 10:27:34;;;;;;;7.67;3.33;;;10.10;38.00;;;;;;5065869;28;20196;-60
2021/04/03 10:30:00;;;;;;;4.90;3.50;;;10.00;38.10;;;;;;5069738;28;20459;-62
2021/04/03 10:32:26;;;;;;;5.47;3.00;;;9.80;39.40;;;;;;5070275;28;20195;-62
2021/04/03 10:34:51;;;;;;;4.40;3.20;;;9.80;39.90;;;;;;5066957;28;20178;-63
2021/04/03 10:37:17;;;;;;;4.67;2.87;;;9.80;39.50;;;;;;5066488;28;20194;-62
2021/04/03 10:39:43;;;;;;;6.50;3.47;;;9.50;38.90;;;;;;5069946;28;20603;-61
2021/04/03 10:42:09;;;;;;;3.63;3.13;;;9.40;39.50;;;;;;5068865;28;20224;-61
2021/04/03 10:44:34;;;;;;;9.83;3.27;;;9.10;39.10;;;;;;5064348;28;20178;-61
2021/04/03 10:47:00;;;;;;;4.20;3.00;;;9.00;39.00;;;;;;5062103;28;20433;-61
2021/04/03 10:49:28;;;;;;;4.47;3.13;;;8.90;39.20;;;;;;5069926;28;20210;-62
2021/04/03 10:51:54;;;;;;;7.10;2.83;;;8.80;39.30;;;;;;5068970;28;20209;-62
2021/04/03 10:54:22;;;;;;;3.93;3.40;;;8.80;39.30;;;;;;5081211;28;20475;-62
2021/04/03 10:56:48;;;;;;;5.20;3.57;;;8.70;39.70;;;;;;5069362;28;20488;-62
2021/04/03 10:59:14;;;;;;;4.67;3.33;;;8.90;40.20;;;;;;5063735;28;20433;-63
2021/04/03 11:01:40;;;;;;;4.20;3.33;;;9.10;39.70;;;;;;5062043;28;20952;-61
2021/04/03 11:04:08;;;;;;;4.90;2.97;;;9.20;39.10;;;;;;5059557;28;20451;-61
2021/04/03 11:06:35;;;;;;;4.30;3.23;;;9.30;39.00;;;;;;5069394;28;20289;-61
2021/04/03 11:09:01;;;;;;;7.53;3.53;;;9.40;39.50;;;;;;5066842;28;20452;-62
2021/04/03 11:11:26;;;;;;;6.07;2.93;;;9.60;39.00;;;;;;5064794;28;20995;-61
2021/04/03 11:13:52;;;;;;;3.30;2.87;;;9.90;39.20;;;;;;5067268;28;20456;-62
2021/04/03 11:16:18;;;;;;;9.97;2.60;;;10.20;37.90;;;;;;5059376;28;20221;-61
2021/04/03 11:18:43;;;;;;;5.27;3.00;;;10.30;37.90;;;;;;5065550;28;20766;-61
2021/04/03 11:21:09;;;;;;;5.67;3.30;;;10.30;37.20;;;;;;5067442;28;20239;-61
2021/04/03 11:23:35;;;;;;;5.50;3.17;;;10.30;37.40;;;;;;5069209;28;20320;-62
2021/04/03 11:26:01;;;;;;;7.63;2.93;;;10.30;37.10;;;;;;5062578;28;20554;-61
2021/04/03 11:28:27;;;;;;;10.20;3.23;;;10.10;36.90;;;;;;5069287;28;20405;-62
2021/04/03 11:30:53;;;;;;;4.13;3.00;;;9.80;38.50;;;;;;5069119;28;20190;-62
2021/04/03 11:33:19;;;;;;;5.67;3.40;;;9.60;38.60;;;;;;5066658;28;20486;-61
2021/04/03 11:35:46;;;;;;;4.20;3.23;;;9.40;38.70;;;;;;5063297;28;20424;-62
2021/04/03 11:38:12;;;;;;;3.17;2.87;;;9.10;38.90;;;;;;5069813;28;20539;-62
2021/04/03 11:40:38;;;;;;;3.30;3.00;;;8.90;39.30;;;;;;5068056;28;20901;-61
2021/04/03 11:43:04;;;;;;;5.23;3.13;;;8.70;39.60;;;;;;5068513;28;20649;-61
2021/04/03 11:45:30;;;;;;;4.47;2.87;;;8.80;40.60;;;;;;5066150;28;20459;-61
2021/04/03 11:47:56;;;;;;;4.07;3.03;;;8.90;39.90;;;;;;5069586;28;20873;-60
2021/04/03 11:50:22;;;;;;;4.30;2.80;;;9.00;40.00;;;;;;5067608;28;20436;-61
2021/04/03 11:52:48;;;;;;;3.23;2.83;;;9.00;39.60;;;;;;5058696;28;20452;-61
2021/04/03 11:55:15;;;;;;;7.10;2.83;;;9.00;39.30;;;;;;5054858;28;20496;-63
2021/04/03 11:57:42;;;;;;;6.73;2.70;;;9.00;39.20;;;;;;5059474;28;20468;-62
2021/04/03 12:00:12;;;;;;;6.30;3.00;;;9.00;38.70;;;;;;5049643;28;20779;-62
2021/04/03 12:02:39;;;;;;;4.27;2.97;;;9.10;39.00;;;;;;5066406;28;20441;-61
2021/04/03 12:05:06;;;;;;;2.93;2.63;;;9.10;38.90;;;;;;5064317;28;20443;-61
2021/04/03 12:07:38;;;;;;;5.50;3.60;;;9.30;39.10;;;;;;5068665;28;20424;-62
2021/04/03 12:10:06;;;;;;;6.17;3.10;;;9.50;38.90;;;;;;5069400;28;20475;-61
2021/04/03 12:12:32;;;;;;;4.40;3.00;;;9.60;38.60;;;;;;5052508;28;20441;-62
2021/04/03 12:14:58;;;;;;;4.03;3.07;;;9.70;38.80;;;;;;5075292;28;20443;-62
2021/04/03 12:17:23;;;;;;;3.97;3.13;;;9.70;38.70;;;;;;5067426;28;20197;-61
2021/04/03 12:19:49;;;;;;;3.23;2.83;;;9.80;38.30;;;;;;5068135;28;20670;-60
2021/04/03 12:22:15;;;;;;;4.80;3.03;;;9.90;38.20;;;;;;5065923;28;20181;-63
2021/04/03 12:24:40;;;;;;;9.60;3.10;;;10.00;37.10;;;;;;5060357;28;20250;-61
2021/04/03 12:27:06;;;;;;;2.83;2.63;;;10.00;37.60;;;;;;5064557;28;20633;-62
2021/04/03 12:29:32;;;;;;;4.57;3.00;;;9.90;38.10;;;;;;5066259;28;20206;-62
2021/04/03 12:31:58;;;;;;;3.60;2.70;;;9.70;37.60;;;;;;5061433;28;20583;-62
2021/04/03 12:34:24;;;;;;;5.63;3.00;;;9.70;37.70;;;;;;5066164;28;20543;-61
2021/04/03 12:36:50;;;;;;;3.50;2.90;;;9.70;38.00;;;;;;5066551;28;20198;-62
2021/04/03 12:39:15;;;;;;;5.70;3.10;;;9.60;38.40;;;;;;5063984;28;20197;-62
2021/04/03 12:41:41;;;;;;;6.30;3.43;;;9.70;38.20;;;;;;5069108;28;20515;-61
2021/04/03 12:44:06;;;;;;;4.50;3.40;;;9.70;37.80;;;;;;5064013;28;20632;-62
2021/04/03 12:46:32;;;;;;;4.40;3.20;;;9.80;38.30;;;;;;5053219;28;20182;-60
2021/04/03 12:48:58;;;;;;;4.47;3.33;;;9.90;38.40;;;;;;5057134;28;20206;-64
2021/04/03 12:51:23;;;;;;;4.20;2.57;;;9.90;37.30;;;;;;5078300;28;20263;-61
2021/04/03 12:53:49;;;;;;;5.83;3.57;;;9.90;37.40;;;;;;5058802;28;20266;-61